sensor_id;sensor_type;location;lat;lon;timestamp;P1;durP1;ratioP1;P2;durP2;ratioP2
55423;SDS011;41294;42.666;23.350;2023-08-30T00:00:24;11.43;;;9.13;;
55423;SDS011;41294;42.666;23.350;2023-08-30T00:02:50;11.13;;;9.18;;
55423;SDS011;41294;42.666;23.350;2023-08-30T00:05:16;10.50;;;9.15;;
55423;SDS011;41294;42.666;23.350;2023-08-30T00:07:41;10.35;;;8.35;;
55423;SDS011;41294;42.666;23.350;2023-08-30T00:10:07;12.40;;;8.68;;
55423;SDS011;41294;42.666;23.350;2023-08-30T00:12:33;11.50;;;8.88;;
55423;SDS011;41294;42.666;23.350;2023-08-30T00:14:59;9.95;;;8.95;;
55423;SDS011;41294;42.666;23.350;2023-08-30T00:17:24;11.05;;;9.15;;
55423;SDS011;41294;42.666;23.350;2023-08-30T00:19:50;10.85;;;8.70;;
55423;SDS011;41294;42.666;23.350;2023-08-30T00:22:15;9.13;;;8.32;;
55423;SDS011;41294;42.666;23.350;2023-08-30T00:24:41;8.77;;;7.88;;
55423;SDS011;41294;42.666;23.350;2023-08-30T00:27:06;8.68;;;7.40;;
55423;SDS011;41294;42.666;23.350;2023-08-30T00:29:32;10.52;;;7.20;;
55423;SDS011;41294;42.666;23.350;2023-08-30T00:31:57;8.13;;;7.28;;
55423;SDS011;41294;42.666;23.350;2023-08-30T00:34:23;7.30;;;6.55;;
55423;SDS011;41294;42.666;23.350;2023-08-30T00:36:48;7.65;;;6.70;;
55423;SDS011;41294;42.666;23.350;2023-08-30T00:39:14;8.82;;;7.53;;
55423;SDS011;41294;42.666;23.350;2023-08-30T00:41:39;11.95;;;6.85;;
55423;SDS011;41294;42.666;23.350;2023-08-30T00:44:05;8.35;;;7.03;;
55423;SDS011;41294;42.666;23.350;2023-08-30T00:46:30;9.27;;;6.80;;
55423;SDS011;41294;42.666;23.350;2023-08-30T00:48:57;8.23;;;7.38;;
55423;SDS011;41294;42.666;23.350;2023-08-30T00:51:24;7.65;;;6.85;;
55423;SDS011;41294;42.666;23.350;2023-08-30T00:53:50;7.72;;;6.93;;
55423;SDS011;41294;42.666;23.350;2023-08-30T00:56:15;13.95;;;7.78;;
55423;SDS011;41294;42.666;23.350;2023-08-30T00:58:41;8.68;;;7.30;;
55423;SDS011;41294;42.666;23.350;2023-08-30T01:01:07;8.95;;;7.18;;
55423;SDS011;41294;42.666;23.350;2023-08-30T01:03:33;9.35;;;7.07;;
55423;SDS011;41294;42.666;23.350;2023-08-30T01:05:59;7.95;;;7.10;;
55423;SDS011;41294;42.666;23.350;2023-08-30T01:08:24;9.00;;;7.38;;
55423;SDS011;41294;42.666;23.350;2023-08-30T01:11:02;9.73;;;7.10;;
55423;SDS011;41294;42.666;23.350;2023-08-30T01:13:33;10.43;;;6.65;;
55423;SDS011;41294;42.666;23.350;2023-08-30T01:16:15;9.10;;;6.78;;
55423;SDS011;41294;42.666;23.350;2023-08-30T01:18:42;8.00;;;7.20;;
55423;SDS011;41294;42.666;23.350;2023-08-30T01:21:09;10.95;;;7.97;;
55423;SDS011;41294;42.666;23.350;2023-08-30T01:23:47;8.73;;;6.35;;
55423;SDS011;41294;42.666;23.350;2023-08-30T01:26:35;9.02;;;6.43;;
55423;SDS011;41294;42.666;23.350;2023-08-30T01:29:02;7.53;;;6.63;;
55423;SDS011;41294;42.666;23.350;2023-08-30T01:31:30;8.15;;;6.60;;
55423;SDS011;41294;42.666;23.350;2023-08-30T01:33:58;7.05;;;5.93;;
55423;SDS011;41294;42.666;23.350;2023-08-30T01:36:25;10.57;;;6.53;;
55423;SDS011;41294;42.666;23.350;2023-08-30T01:38:52;6.38;;;5.75;;
55423;SDS011;41294;42.666;23.350;2023-08-30T01:41:18;6.55;;;5.90;;
55423;SDS011;41294;42.666;23.350;2023-08-30T01:43:44;7.55;;;6.53;;
55423;SDS011;41294;42.666;23.350;2023-08-30T01:46:10;7.70;;;5.80;;
55423;SDS011;41294;42.666;23.350;2023-08-30T01:48:36;7.50;;;5.93;;
55423;SDS011;41294;42.666;23.350;2023-08-30T01:51:02;6.78;;;6.07;;
55423;SDS011;41294;42.666;23.350;2023-08-30T01:53:29;7.07;;;6.38;;
55423;SDS011;41294;42.666;23.350;2023-08-30T01:55:56;8.02;;;6.00;;
55423;SDS011;41294;42.666;23.350;2023-08-30T01:58:22;8.00;;;6.32;;
55423;SDS011;41294;42.666;23.350;2023-08-30T02:00:47;8.43;;;6.50;;
55423;SDS011;41294;42.666;23.350;2023-08-30T02:03:13;6.78;;;6.10;;
55423;SDS011;41294;42.666;23.350;2023-08-30T02:05:43;6.70;;;6.05;;
55423;SDS011;41294;42.666;23.350;2023-08-30T02:08:22;9.57;;;6.80;;
55423;SDS011;41294;42.666;23.350;2023-08-30T02:10:52;8.63;;;7.10;;
55423;SDS011;41294;42.666;23.350;2023-08-30T02:13:27;10.32;;;6.75;;
55423;SDS011;41294;42.666;23.350;2023-08-30T02:15:55;8.43;;;6.38;;
55423;SDS011;41294;42.666;23.350;2023-08-30T02:18:24;6.90;;;6.20;;
55423;SDS011;41294;42.666;23.350;2023-08-30T02:20:50;9.63;;;6.15;;
55423;SDS011;41294;42.666;23.350;2023-08-30T02:23:15;7.00;;;5.90;;
55423;SDS011;41294;42.666;23.350;2023-08-30T02:25:41;7.70;;;6.80;;
55423;SDS011;41294;42.666;23.350;2023-08-30T02:28:06;10.55;;;6.93;;
55423;SDS011;41294;42.666;23.350;2023-08-30T02:30:32;6.88;;;6.18;;
55423;SDS011;41294;42.666;23.350;2023-08-30T02:32:57;8.57;;;6.60;;
55423;SDS011;41294;42.666;23.350;2023-08-30T02:35:23;6.82;;;6.13;;
55423;SDS011;41294;42.666;23.350;2023-08-30T02:37:48;8.55;;;6.72;;
55423;SDS011;41294;42.666;23.350;2023-08-30T02:40:13;7.43;;;6.68;;
55423;SDS011;41294;42.666;23.350;2023-08-30T02:42:39;7.45;;;6.32;;
55423;SDS011;41294;42.666;23.350;2023-08-30T02:45:04;9.30;;;6.80;;
55423;SDS011;41294;42.666;23.350;2023-08-30T02:47:30;10.68;;;6.90;;
55423;SDS011;41294;42.666;23.350;2023-08-30T02:49:55;8.15;;;6.93;;
55423;SDS011;41294;42.666;23.350;2023-08-30T02:52:21;9.80;;;6.13;;
55423;SDS011;41294;42.666;23.350;2023-08-30T02:54:46;7.40;;;6.70;;
55423;SDS011;41294;42.666;23.350;2023-08-30T02:57:12;8.80;;;6.65;;
55423;SDS011;41294;42.666;23.350;2023-08-30T02:59:37;9.38;;;6.72;;
55423;SDS011;41294;42.666;23.350;2023-08-30T03:02:02;8.85;;;6.90;;
55423;SDS011;41294;42.666;23.350;2023-08-30T03:04:28;9.48;;;7.18;;
55423;SDS011;41294;42.666;23.350;2023-08-30T03:06:53;11.75;;;6.88;;
55423;SDS011;41294;42.666;23.350;2023-08-30T03:09:18;9.02;;;7.07;;
55423;SDS011;41294;42.666;23.350;2023-08-30T03:11:44;7.13;;;6.53;;
55423;SDS011;41294;42.666;23.350;2023-08-30T03:14:10;10.05;;;7.40;;
55423;SDS011;41294;42.666;23.350;2023-08-30T03:16:35;7.60;;;6.57;;
55423;SDS011;41294;42.666;23.350;2023-08-30T03:19:01;7.80;;;7.00;;
55423;SDS011;41294;42.666;23.350;2023-08-30T03:21:27;9.40;;;6.80;;
55423;SDS011;41294;42.666;23.350;2023-08-30T03:23:52;7.75;;;6.95;;
55423;SDS011;41294;42.666;23.350;2023-08-30T03:26:18;10.05;;;7.25;;
55423;SDS011;41294;42.666;23.350;2023-08-30T03:28:43;7.65;;;6.93;;
55423;SDS011;41294;42.666;23.350;2023-08-30T03:31:13;8.98;;;6.68;;
55423;SDS011;41294;42.666;23.350;2023-08-30T03:33:42;9.57;;;7.75;;
55423;SDS011;41294;42.666;23.350;2023-08-30T03:36:09;8.35;;;7.38;;
55423;SDS011;41294;42.666;23.350;2023-08-30T03:38:36;8.90;;;6.93;;
55423;SDS011;41294;42.666;23.350;2023-08-30T03:41:02;12.25;;;7.47;;
55423;SDS011;41294;42.666;23.350;2023-08-30T03:43:28;12.30;;;7.70;;
55423;SDS011;41294;42.666;23.350;2023-08-30T03:45:54;9.13;;;7.03;;
55423;SDS011;41294;42.666;23.350;2023-08-30T03:48:19;9.02;;;7.65;;
55423;SDS011;41294;42.666;23.350;2023-08-30T03:50:44;9.25;;;7.63;;
55423;SDS011;41294;42.666;23.350;2023-08-30T03:53:10;9.57;;;7.40;;
55423;SDS011;41294;42.666;23.350;2023-08-30T03:55:35;11.05;;;7.90;;
55423;SDS011;41294;42.666;23.350;2023-08-30T03:58:01;8.88;;;7.97;;
55423;SDS011;41294;42.666;23.350;2023-08-30T04:00:26;9.07;;;8.18;;
55423;SDS011;41294;42.666;23.350;2023-08-30T04:02:52;9.10;;;7.32;;
55423;SDS011;41294;42.666;23.350;2023-08-30T04:05:17;8.95;;;7.75;;
55423;SDS011;41294;42.666;23.350;2023-08-30T04:07:42;9.23;;;8.32;;
55423;SDS011;41294;42.666;23.350;2023-08-30T04:10:08;13.55;;;9.05;;
55423;SDS011;41294;42.666;23.350;2023-08-30T04:12:34;11.60;;;10.32;;
55423;SDS011;41294;42.666;23.350;2023-08-30T04:15:00;12.52;;;11.13;;
55423;SDS011;41294;42.666;23.350;2023-08-30T04:17:26;20.05;;;10.98;;
55423;SDS011;41294;42.666;23.350;2023-08-30T04:19:52;13.25;;;11.27;;
55423;SDS011;41294;42.666;23.350;2023-08-30T04:22:18;12.68;;;10.70;;
55423;SDS011;41294;42.666;23.350;2023-08-30T04:24:43;14.77;;;11.30;;
55423;SDS011;41294;42.666;23.350;2023-08-30T04:27:09;13.80;;;11.13;;
55423;SDS011;41294;42.666;23.350;2023-08-30T04:29:34;12.10;;;10.20;;
55423;SDS011;41294;42.666;23.350;2023-08-30T04:31:59;11.43;;;9.73;;
55423;SDS011;41294;42.666;23.350;2023-08-30T04:34:25;14.98;;;9.82;;
55423;SDS011;41294;42.666;23.350;2023-08-30T04:36:51;13.30;;;9.80;;
55423;SDS011;41294;42.666;23.350;2023-08-30T04:39:16;10.02;;;9.10;;
55423;SDS011;41294;42.666;23.350;2023-08-30T04:41:42;9.68;;;8.70;;
55423;SDS011;41294;42.666;23.350;2023-08-30T04:44:07;11.95;;;8.73;;
55423;SDS011;41294;42.666;23.350;2023-08-30T04:46:32;10.90;;;9.23;;
55423;SDS011;41294;42.666;23.350;2023-08-30T04:48:58;10.38;;;8.80;;
55423;SDS011;41294;42.666;23.350;2023-08-30T04:51:23;9.50;;;8.27;;
55423;SDS011;41294;42.666;23.350;2023-08-30T04:53:49;12.05;;;8.05;;
55423;SDS011;41294;42.666;23.350;2023-08-30T04:56:14;11.30;;;8.43;;
55423;SDS011;41294;42.666;23.350;2023-08-30T04:58:42;12.65;;;8.15;;
55423;SDS011;41294;42.666;23.350;2023-08-30T05:01:08;9.38;;;8.13;;
55423;SDS011;41294;42.666;23.350;2023-08-30T05:03:34;10.57;;;8.43;;
55423;SDS011;41294;42.666;23.350;2023-08-30T05:05:59;10.80;;;8.20;;
55423;SDS011;41294;42.666;23.350;2023-08-30T05:08:25;12.38;;;8.35;;
55423;SDS011;41294;42.666;23.350;2023-08-30T05:10:53;9.63;;;8.57;;
55423;SDS011;41294;42.666;23.350;2023-08-30T05:13:19;11.90;;;9.57;;
55423;SDS011;41294;42.666;23.350;2023-08-30T05:15:44;14.65;;;9.07;;
55423;SDS011;41294;42.666;23.350;2023-08-30T05:18:10;10.35;;;8.95;;
55423;SDS011;41294;42.666;23.350;2023-08-30T05:20:36;12.10;;;8.90;;
55423;SDS011;41294;42.666;23.350;2023-08-30T05:23:01;11.23;;;9.15;;
55423;SDS011;41294;42.666;23.350;2023-08-30T05:25:27;10.07;;;8.98;;
55423;SDS011;41294;42.666;23.350;2023-08-30T05:27:53;11.55;;;10.15;;
55423;SDS011;41294;42.666;23.350;2023-08-30T05:30:18;12.57;;;9.98;;
55423;SDS011;41294;42.666;23.350;2023-08-30T05:32:44;13.25;;;9.30;;
55423;SDS011;41294;42.666;23.350;2023-08-30T05:35:10;14.07;;;9.45;;
55423;SDS011;41294;42.666;23.350;2023-08-30T05:37:35;13.57;;;8.50;;
55423;SDS011;41294;42.666;23.350;2023-08-30T05:40:01;14.70;;;9.13;;
55423;SDS011;41294;42.666;23.350;2023-08-30T05:42:26;11.50;;;8.43;;
55423;SDS011;41294;42.666;23.350;2023-08-30T05:44:52;9.93;;;7.38;;
55423;SDS011;41294;42.666;23.350;2023-08-30T05:47:20;8.75;;;5.43;;
55423;SDS011;41294;42.666;23.350;2023-08-30T05:49:45;7.97;;;5.20;;
55423;SDS011;41294;42.666;23.350;2023-08-30T05:52:11;10.60;;;6.20;;
55423;SDS011;41294;42.666;23.350;2023-08-30T05:54:36;8.43;;;4.90;;
55423;SDS011;41294;42.666;23.350;2023-08-30T05:57:02;8.38;;;4.80;;
55423;SDS011;41294;42.666;23.350;2023-08-30T05:59:27;6.50;;;4.00;;
55423;SDS011;41294;42.666;23.350;2023-08-30T06:01:53;3.88;;;3.45;;
55423;SDS011;41294;42.666;23.350;2023-08-30T06:04:18;4.82;;;3.90;;
55423;SDS011;41294;42.666;23.350;2023-08-30T06:06:44;5.28;;;4.03;;
55423;SDS011;41294;42.666;23.350;2023-08-30T06:09:09;8.98;;;5.53;;
55423;SDS011;41294;42.666;23.350;2023-08-30T06:11:37;7.22;;;4.20;;
55423;SDS011;41294;42.666;23.350;2023-08-30T06:14:02;6.13;;;4.03;;
55423;SDS011;41294;42.666;23.350;2023-08-30T06:16:28;4.90;;;4.13;;
55423;SDS011;41294;42.666;23.350;2023-08-30T06:18:53;6.13;;;3.95;;
55423;SDS011;41294;42.666;23.350;2023-08-30T06:21:19;5.30;;;3.95;;
55423;SDS011;41294;42.666;23.350;2023-08-30T06:23:44;6.28;;;4.30;;
55423;SDS011;41294;42.666;23.350;2023-08-30T06:26:10;6.25;;;3.67;;
55423;SDS011;41294;42.666;23.350;2023-08-30T06:28:35;5.32;;;4.22;;
55423;SDS011;41294;42.666;23.350;2023-08-30T06:31:00;7.80;;;4.50;;
55423;SDS011;41294;42.666;23.350;2023-08-30T06:33:26;6.22;;;4.53;;
55423;SDS011;41294;42.666;23.350;2023-08-30T06:35:51;5.45;;;4.18;;
55423;SDS011;41294;42.666;23.350;2023-08-30T06:38:18;5.95;;;4.28;;
55423;SDS011;41294;42.666;23.350;2023-08-30T06:40:44;7.47;;;3.90;;
55423;SDS011;41294;42.666;23.350;2023-08-30T06:43:11;5.90;;;4.20;;
55423;SDS011;41294;42.666;23.350;2023-08-30T06:45:37;6.20;;;4.00;;
55423;SDS011;41294;42.666;23.350;2023-08-30T06:48:04;6.78;;;4.60;;
55423;SDS011;41294;42.666;23.350;2023-08-30T06:50:30;4.78;;;3.60;;
55423;SDS011;41294;42.666;23.350;2023-08-30T06:52:56;5.85;;;3.78;;
55423;SDS011;41294;42.666;23.350;2023-08-30T06:55:21;4.93;;;3.80;;
55423;SDS011;41294;42.666;23.350;2023-08-30T06:57:47;4.15;;;3.65;;
55423;SDS011;41294;42.666;23.350;2023-08-30T07:00:14;3.28;;;3.05;;
55423;SDS011;41294;42.666;23.350;2023-08-30T07:02:40;7.25;;;3.70;;
55423;SDS011;41294;42.666;23.350;2023-08-30T07:05:09;4.57;;;3.50;;
55423;SDS011;41294;42.666;23.350;2023-08-30T07:07:35;4.57;;;3.40;;
55423;SDS011;41294;42.666;23.350;2023-08-30T07:10:00;5.70;;;3.63;;
55423;SDS011;41294;42.666;23.350;2023-08-30T07:12:26;6.25;;;3.88;;
55423;SDS011;41294;42.666;23.350;2023-08-30T07:14:51;5.57;;;3.50;;
55423;SDS011;41294;42.666;23.350;2023-08-30T07:17:17;6.07;;;3.53;;
55423;SDS011;41294;42.666;23.350;2023-08-30T07:19:43;5.25;;;3.83;;
55423;SDS011;41294;42.666;23.350;2023-08-30T07:22:08;4.28;;;3.35;;
55423;SDS011;41294;42.666;23.350;2023-08-30T07:24:33;4.50;;;3.67;;
55423;SDS011;41294;42.666;23.350;2023-08-30T07:26:59;4.82;;;3.30;;
55423;SDS011;41294;42.666;23.350;2023-08-30T07:29:24;6.35;;;4.32;;
55423;SDS011;41294;42.666;23.350;2023-08-30T07:31:50;5.90;;;4.50;;
55423;SDS011;41294;42.666;23.350;2023-08-30T07:34:18;4.43;;;3.72;;
55423;SDS011;41294;42.666;23.350;2023-08-30T07:36:44;5.78;;;3.55;;
55423;SDS011;41294;42.666;23.350;2023-08-30T07:39:09;6.25;;;3.80;;
55423;SDS011;41294;42.666;23.350;2023-08-30T07:41:35;6.78;;;4.10;;
55423;SDS011;41294;42.666;23.350;2023-08-30T07:44:00;5.85;;;3.60;;
55423;SDS011;41294;42.666;23.350;2023-08-30T07:46:27;6.10;;;4.03;;
55423;SDS011;41294;42.666;23.350;2023-08-30T07:48:53;3.78;;;3.35;;
55423;SDS011;41294;42.666;23.350;2023-08-30T07:51:19;6.50;;;3.97;;
55423;SDS011;41294;42.666;23.350;2023-08-30T07:53:44;5.75;;;3.80;;
55423;SDS011;41294;42.666;23.350;2023-08-30T07:56:10;5.25;;;4.15;;
55423;SDS011;41294;42.666;23.350;2023-08-30T07:58:35;6.18;;;3.95;;
55423;SDS011;41294;42.666;23.350;2023-08-30T08:01:00;5.93;;;4.13;;
55423;SDS011;41294;42.666;23.350;2023-08-30T08:03:26;12.52;;;3.67;;
55423;SDS011;41294;42.666;23.350;2023-08-30T08:05:52;4.72;;;3.75;;
55423;SDS011;41294;42.666;23.350;2023-08-30T08:08:17;6.72;;;3.97;;
55423;SDS011;41294;42.666;23.350;2023-08-30T08:10:43;7.55;;;4.07;;
55423;SDS011;41294;42.666;23.350;2023-08-30T08:13:09;7.97;;;4.20;;
55423;SDS011;41294;42.666;23.350;2023-08-30T08:15:34;7.68;;;3.95;;
55423;SDS011;41294;42.666;23.350;2023-08-30T08:18:00;7.82;;;4.03;;
55423;SDS011;41294;42.666;23.350;2023-08-30T08:20:26;6.22;;;4.05;;
55423;SDS011;41294;42.666;23.350;2023-08-30T08:22:54;6.05;;;4.10;;
55423;SDS011;41294;42.666;23.350;2023-08-30T08:25:19;5.68;;;4.07;;
55423;SDS011;41294;42.666;23.350;2023-08-30T08:27:46;5.53;;;4.10;;
55423;SDS011;41294;42.666;23.350;2023-08-30T08:30:11;6.47;;;3.60;;
55423;SDS011;41294;42.666;23.350;2023-08-30T08:32:37;7.20;;;4.20;;
55423;SDS011;41294;42.666;23.350;2023-08-30T08:35:05;10.32;;;4.38;;
55423;SDS011;41294;42.666;23.350;2023-08-30T08:37:31;5.43;;;3.72;;
55423;SDS011;41294;42.666;23.350;2023-08-30T08:39:57;8.07;;;4.00;;
55423;SDS011;41294;42.666;23.350;2023-08-30T08:42:22;4.50;;;3.78;;
55423;SDS011;41294;42.666;23.350;2023-08-30T08:44:51;4.38;;;3.20;;
55423;SDS011;41294;42.666;23.350;2023-08-30T08:47:19;6.13;;;3.60;;
55423;SDS011;41294;42.666;23.350;2023-08-30T08:49:49;3.67;;;3.00;;
55423;SDS011;41294;42.666;23.350;2023-08-30T08:52:15;6.75;;;3.53;;
55423;SDS011;41294;42.666;23.350;2023-08-30T08:54:41;5.18;;;3.65;;
55423;SDS011;41294;42.666;23.350;2023-08-30T08:57:08;5.68;;;3.47;;
55423;SDS011;41294;42.666;23.350;2023-08-30T08:59:34;5.55;;;3.47;;
55423;SDS011;41294;42.666;23.350;2023-08-30T09:02:00;8.00;;;4.15;;
55423;SDS011;41294;42.666;23.350;2023-08-30T09:04:26;6.15;;;3.70;;
55423;SDS011;41294;42.666;23.350;2023-08-30T09:06:55;5.32;;;3.45;;
55423;SDS011;41294;42.666;23.350;2023-08-30T09:09:21;6.15;;;3.72;;
55423;SDS011;41294;42.666;23.350;2023-08-30T09:11:48;4.10;;;3.22;;
55423;SDS011;41294;42.666;23.350;2023-08-30T09:14:13;4.18;;;3.17;;
55423;SDS011;41294;42.666;23.350;2023-08-30T09:16:39;6.10;;;3.72;;
55423;SDS011;41294;42.666;23.350;2023-08-30T09:19:04;3.83;;;3.33;;
55423;SDS011;41294;42.666;23.350;2023-08-30T09:21:30;6.03;;;3.75;;
55423;SDS011;41294;42.666;23.350;2023-08-30T09:24:00;9.65;;;3.50;;
55423;SDS011;41294;42.666;23.350;2023-08-30T09:26:28;4.78;;;3.30;;
55423;SDS011;41294;42.666;23.350;2023-08-30T09:29:00;4.63;;;3.17;;
55423;SDS011;41294;42.666;23.350;2023-08-30T09:31:32;4.60;;;3.45;;
55423;SDS011;41294;42.666;23.350;2023-08-30T09:34:07;7.35;;;3.80;;
55423;SDS011;41294;42.666;23.350;2023-08-30T09:36:35;9.10;;;4.10;;
55423;SDS011;41294;42.666;23.350;2023-08-30T09:39:06;6.35;;;3.88;;
55423;SDS011;41294;42.666;23.350;2023-08-30T09:41:34;5.22;;;3.95;;
55423;SDS011;41294;42.666;23.350;2023-08-30T09:44:05;5.22;;;3.97;;
55423;SDS011;41294;42.666;23.350;2023-08-30T09:46:31;7.20;;;4.47;;
55423;SDS011;41294;42.666;23.350;2023-08-30T09:48:57;5.82;;;4.10;;
55423;SDS011;41294;42.666;23.350;2023-08-30T09:51:23;5.47;;;4.95;;
55423;SDS011;41294;42.666;23.350;2023-08-30T09:53:52;6.22;;;3.80;;
55423;SDS011;41294;42.666;23.350;2023-08-30T09:56:23;5.65;;;4.43;;
55423;SDS011;41294;42.666;23.350;2023-08-30T09:58:49;5.25;;;3.50;;
55423;SDS011;41294;42.666;23.350;2023-08-30T10:01:15;5.80;;;4.18;;
55423;SDS011;41294;42.666;23.350;2023-08-30T10:03:42;5.45;;;3.67;;
55423;SDS011;41294;42.666;23.350;2023-08-30T10:06:07;7.40;;;4.30;;
55423;SDS011;41294;42.666;23.350;2023-08-30T10:08:33;5.25;;;4.00;;
55423;SDS011;41294;42.666;23.350;2023-08-30T10:11:00;7.18;;;4.28;;
55423;SDS011;41294;42.666;23.350;2023-08-30T10:13:26;7.47;;;4.40;;
55423;SDS011;41294;42.666;23.350;2023-08-30T10:15:56;5.47;;;4.00;;
55423;SDS011;41294;42.666;23.350;2023-08-30T10:18:28;6.38;;;4.00;;
55423;SDS011;41294;42.666;23.350;2023-08-30T10:20:55;6.40;;;3.83;;
55423;SDS011;41294;42.666;23.350;2023-08-30T10:23:22;4.68;;;4.05;;
55423;SDS011;41294;42.666;23.350;2023-08-30T10:25:49;6.97;;;4.22;;
55423;SDS011;41294;42.666;23.350;2023-08-30T10:28:18;5.43;;;3.95;;
55423;SDS011;41294;42.666;23.350;2023-08-30T10:30:46;7.90;;;4.60;;
55423;SDS011;41294;42.666;23.350;2023-08-30T10:33:12;7.28;;;4.30;;
55423;SDS011;41294;42.666;23.350;2023-08-30T10:35:46;6.18;;;4.72;;
55423;SDS011;41294;42.666;23.350;2023-08-30T10:38:29;4.90;;;4.38;;
55423;SDS011;41294;42.666;23.350;2023-08-30T10:40:55;7.82;;;4.38;;
55423;SDS011;41294;42.666;23.350;2023-08-30T10:43:31;5.15;;;4.38;;
55423;SDS011;41294;42.666;23.350;2023-08-30T10:46:02;7.85;;;5.03;;
55423;SDS011;41294;42.666;23.350;2023-08-30T10:48:35;5.45;;;4.55;;
55423;SDS011;41294;42.666;23.350;2023-08-30T10:51:05;7.70;;;4.68;;
55423;SDS011;41294;42.666;23.350;2023-08-30T10:53:56;4.63;;;4.10;;
55423;SDS011;41294;42.666;23.350;2023-08-30T10:56:30;6.35;;;4.80;;
55423;SDS011;41294;42.666;23.350;2023-08-30T10:58:56;4.97;;;4.22;;
55423;SDS011;41294;42.666;23.350;2023-08-30T11:01:22;5.32;;;4.70;;
55423;SDS011;41294;42.666;23.350;2023-08-30T11:03:48;6.95;;;5.07;;
55423;SDS011;41294;42.666;23.350;2023-08-30T11:06:14;6.50;;;5.25;;
55423;SDS011;41294;42.666;23.350;2023-08-30T11:08:42;8.07;;;5.40;;
55423;SDS011;41294;42.666;23.350;2023-08-30T11:11:08;5.55;;;4.15;;
55423;SDS011;41294;42.666;23.350;2023-08-30T11:13:36;5.93;;;4.78;;
55423;SDS011;41294;42.666;23.350;2023-08-30T11:16:01;7.75;;;5.55;;
55423;SDS011;41294;42.666;23.350;2023-08-30T11:18:30;6.50;;;4.88;;
55423;SDS011;41294;42.666;23.350;2023-08-30T11:21:02;6.22;;;4.72;;
55423;SDS011;41294;42.666;23.350;2023-08-30T11:23:28;9.18;;;4.80;;
55423;SDS011;41294;42.666;23.350;2023-08-30T11:25:53;6.10;;;4.63;;
55423;SDS011;41294;42.666;23.350;2023-08-30T11:28:25;7.97;;;4.63;;
55423;SDS011;41294;42.666;23.350;2023-08-30T11:30:54;6.72;;;4.60;;
55423;SDS011;41294;42.666;23.350;2023-08-30T11:33:23;6.03;;;4.72;;
55423;SDS011;41294;42.666;23.350;2023-08-30T11:35:49;5.35;;;4.72;;
55423;SDS011;41294;42.666;23.350;2023-08-30T11:38:17;8.25;;;5.20;;
55423;SDS011;41294;42.666;23.350;2023-08-30T11:40:43;6.35;;;4.82;;
55423;SDS011;41294;42.666;23.350;2023-08-30T11:43:09;5.53;;;5.03;;
55423;SDS011;41294;42.666;23.350;2023-08-30T11:45:35;6.28;;;5.03;;
55423;SDS011;41294;42.666;23.350;2023-08-30T11:48:00;6.05;;;4.68;;
55423;SDS011;41294;42.666;23.350;2023-08-30T11:50:26;8.98;;;5.63;;
55423;SDS011;41294;42.666;23.350;2023-08-30T11:52:52;6.32;;;4.75;;
55423;SDS011;41294;42.666;23.350;2023-08-30T11:55:19;10.15;;;5.47;;
55423;SDS011;41294;42.666;23.350;2023-08-30T11:57:48;6.57;;;4.78;;
55423;SDS011;41294;42.666;23.350;2023-08-30T12:00:14;8.25;;;5.38;;
55423;SDS011;41294;42.666;23.350;2023-08-30T12:02:40;7.90;;;5.05;;
55423;SDS011;41294;42.666;23.350;2023-08-30T12:05:10;6.90;;;5.32;;
55423;SDS011;41294;42.666;23.350;2023-08-30T12:07:36;5.75;;;4.95;;
55423;SDS011;41294;42.666;23.350;2023-08-30T12:10:05;7.38;;;5.57;;
55423;SDS011;41294;42.666;23.350;2023-08-30T12:12:34;7.15;;;5.50;;
55423;SDS011;41294;42.666;23.350;2023-08-30T12:15:08;6.75;;;4.82;;
55423;SDS011;41294;42.666;23.350;2023-08-30T12:17:36;7.80;;;5.47;;
55423;SDS011;41294;42.666;23.350;2023-08-30T12:20:02;7.45;;;5.50;;
55423;SDS011;41294;42.666;23.350;2023-08-30T12:22:41;8.45;;;5.40;;
55423;SDS011;41294;42.666;23.350;2023-08-30T12:27:52;7.68;;;5.45;;
55423;SDS011;41294;42.666;23.350;2023-08-30T12:30:19;6.55;;;5.75;;
55423;SDS011;41294;42.666;23.350;2023-08-30T12:32:45;8.95;;;5.47;;
55423;SDS011;41294;42.666;23.350;2023-08-30T12:35:10;6.30;;;5.43;;
55423;SDS011;41294;42.666;23.350;2023-08-30T12:37:36;8.32;;;5.05;;
55423;SDS011;41294;42.666;23.350;2023-08-30T12:40:03;6.43;;;5.55;;
55423;SDS011;41294;42.666;23.350;2023-08-30T12:42:28;8.15;;;5.72;;
55423;SDS011;41294;42.666;23.350;2023-08-30T12:44:54;8.40;;;5.32;;
55423;SDS011;41294;42.666;23.350;2023-08-30T12:47:20;8.82;;;5.22;;
55423;SDS011;41294;42.666;23.350;2023-08-30T12:49:46;7.65;;;5.25;;
55423;SDS011;41294;42.666;23.350;2023-08-30T12:52:11;10.50;;;5.10;;
55423;SDS011;41294;42.666;23.350;2023-08-30T12:54:36;6.53;;;5.40;;
55423;SDS011;41294;42.666;23.350;2023-08-30T12:57:02;7.85;;;5.60;;
55423;SDS011;41294;42.666;23.350;2023-08-30T12:59:28;5.80;;;5.30;;
55423;SDS011;41294;42.666;23.350;2023-08-30T13:01:56;7.15;;;5.22;;
55423;SDS011;41294;42.666;23.350;2023-08-30T13:04:22;8.40;;;5.50;;
55423;SDS011;41294;42.666;23.350;2023-08-30T13:06:47;9.60;;;5.72;;
55423;SDS011;41294;42.666;23.350;2023-08-30T13:09:13;7.50;;;5.60;;
55423;SDS011;41294;42.666;23.350;2023-08-30T13:11:38;6.35;;;5.55;;
55423;SDS011;41294;42.666;23.350;2023-08-30T13:14:03;7.72;;;5.70;;
55423;SDS011;41294;42.666;23.350;2023-08-30T13:16:29;7.43;;;5.90;;
55423;SDS011;41294;42.666;23.350;2023-08-30T13:18:54;5.95;;;5.35;;
55423;SDS011;41294;42.666;23.350;2023-08-30T13:21:20;6.35;;;5.60;;
55423;SDS011;41294;42.666;23.350;2023-08-30T13:23:45;6.40;;;5.07;;
55423;SDS011;41294;42.666;23.350;2023-08-30T13:26:10;6.45;;;5.13;;
55423;SDS011;41294;42.666;23.350;2023-08-30T13:28:36;6.18;;;5.05;;
55423;SDS011;41294;42.666;23.350;2023-08-30T13:31:01;5.43;;;4.93;;
55423;SDS011;41294;42.666;23.350;2023-08-30T13:33:27;6.38;;;4.93;;
55423;SDS011;41294;42.666;23.350;2023-08-30T13:35:52;7.20;;;4.85;;
55423;SDS011;41294;42.666;23.350;2023-08-30T13:38:18;7.40;;;4.47;;
55423;SDS011;41294;42.666;23.350;2023-08-30T13:40:44;5.28;;;4.65;;
55423;SDS011;41294;42.666;23.350;2023-08-30T13:43:10;5.47;;;4.63;;
55423;SDS011;41294;42.666;23.350;2023-08-30T13:45:35;7.72;;;5.38;;
55423;SDS011;41294;42.666;23.350;2023-08-30T13:48:01;4.75;;;4.25;;
55423;SDS011;41294;42.666;23.350;2023-08-30T13:50:27;6.60;;;4.53;;
55423;SDS011;41294;42.666;23.350;2023-08-30T13:52:58;6.55;;;4.13;;
55423;SDS011;41294;42.666;23.350;2023-08-30T13:55:24;6.03;;;4.28;;
55423;SDS011;41294;42.666;23.350;2023-08-30T13:57:49;5.10;;;4.45;;
55423;SDS011;41294;42.666;23.350;2023-08-30T14:00:16;6.75;;;4.40;;
55423;SDS011;41294;42.666;23.350;2023-08-30T14:02:42;4.60;;;4.20;;
55423;SDS011;41294;42.666;23.350;2023-08-30T14:05:07;7.03;;;4.63;;
55423;SDS011;41294;42.666;23.350;2023-08-30T14:07:33;4.85;;;4.35;;
55423;SDS011;41294;42.666;23.350;2023-08-30T14:09:59;5.03;;;4.25;;
55423;SDS011;41294;42.666;23.350;2023-08-30T14:12:24;5.78;;;4.40;;
55423;SDS011;41294;42.666;23.350;2023-08-30T14:14:50;6.00;;;4.35;;
55423;SDS011;41294;42.666;23.350;2023-08-30T14:17:16;4.50;;;4.10;;
55423;SDS011;41294;42.666;23.350;2023-08-30T14:19:42;5.32;;;4.20;;
55423;SDS011;41294;42.666;23.350;2023-08-30T14:22:07;8.48;;;4.22;;
55423;SDS011;41294;42.666;23.350;2023-08-30T14:24:33;6.15;;;3.90;;
55423;SDS011;41294;42.666;23.350;2023-08-30T14:27:01;5.63;;;3.70;;
55423;SDS011;41294;42.666;23.350;2023-08-30T14:29:28;4.93;;;4.10;;